• Join FlightAware (Why Join?)
  • Login
  • US Flag 
Gobble Gobble! 
01:37PM EST


 

Airport Tracker/Info


-or-


 

Live Flight TrackerFlight Track Log ✈ SWA1031 ✈ 25-Apr-2013 ✈ KONT - KMDW

Flight Track Log - Related Links

Times and Time Zones

All times are in EDT time to prevent confusion due to time zone crossing. See the SWA1031 flight status page for this flight to view local times or setup timezone preferences in your user account.

Time Position Orientation Groundspeed Altitude Reporting Facility
EDT Latitude Longitude Course Direction KTS MPH feet Rate Location/Type
04:57PM 34.0558 -117.6892 270° West 202 232 3,600  Level Los Angeles Center
04:58PM 34.0872 -117.7708 295° West 239 275 6,500 3,000 Climbing Los Angeles Center
04:59PM 34.1381 -117.8372 313° West 266 306 9,900 2,760 Climbing Los Angeles Center
05:01PM 34.2802 -118.0302 320° Northwest  Level FlightAware Approximate
05:01PM 34.2772 -117.8742 320° Northwest 338 389 15,100  Level Los Angeles Center
05:02PM 34.3325 -117.7703 57° Northeast 368 423 17,800 2,580 Climbing Los Angeles Center
05:03PM 34.3947 -117.6550 57° Northeast 385 443 20,500 2,340 Climbing Los Angeles Center
05:04PM 34.4556 -117.5414 57° Northeast 404 465 22,700 2,100 Climbing Los Angeles Center
05:05PM 34.5317 -117.3958 58° Northeast 428 493 24,900 1,980 Climbing Los Angeles Center
05:06PM 34.6100 -117.2800 51° Northeast 448 516 26,800 1,740 Climbing Los Angeles Center
05:07PM 34.6922 -117.1639 49° Northeast 456 525 28,600 1,260 Climbing Los Angeles Center
05:08PM 34.7750 -117.0475 49° Northeast 460 529 29,500 1,080 Climbing Los Angeles Center
05:09PM 34.8606 -116.9281 49° Northeast 469 540 30,900 1,680 Climbing Los Angeles Center
05:10PM 34.9622 -116.7814 50° Northeast 474 545 33,000 1,740 Climbing Los Angeles Center
05:11PM 35.0472 -116.6583 50° Northeast 476 548 34,500 1,260 Climbing Los Angeles Center
05:12PM 35.1328 -116.5386 49° Northeast 473 544 35,700 1,140 Climbing Los Angeles Center
05:13PM 35.2178 -116.4175 49° Northeast 470 541 36,900 600 Climbing Los Angeles Center
05:14PM 35.3028 -116.2953 50° Northeast 473 544 37,000  Climbing Los Angeles Center
05:15PM 35.4019 -116.1483 50° Northeast 467 537 37,000  Level Los Angeles Center
05:16PM 35.4886 -116.0272 49° Northeast 471 542 37,000  Level Los Angeles Center
05:17PM 35.5722 -115.9061 50° Northeast 468 539 37,000  Level Los Angeles Center
05:19PM 35.6628 -115.7750 50° Northeast 467 537 37,000  Level Los Angeles Center
05:20PM 35.7439 -115.6519 51° Northeast 466 536 37,000  Level Los Angeles Center
05:21PM 35.7956 -115.5042 67° East 473 544 37,000  Level Los Angeles Center
05:22PM 35.8475 -115.3564 67° East 474 545 37,000  Level Los Angeles Center
05:23PM 35.9061 -115.1769 68° East 472 543 37,000  Level Los Angeles Center
05:24PM 35.9583 -115.0272 67° East 476 548 37,000  Level Los Angeles Center
05:25PM 36.0086 -114.8750 68° East 482 555 37,000  Level Los Angeles Center
05:26PM 36.0611 -114.7222 67° East 485 558 37,100 660 Climbing Los Angeles Center
05:27PM 36.1117 -114.5689 68° East 483 556 38,400 900 Climbing Los Angeles Center
05:28PM 36.1706 -114.3878 68° East 478 550 39,000 240 Climbing Los Angeles Center
05:29PM 36.2178 -114.2361 69° East 475 547 39,000  Level Los Angeles Center
05:30PM 36.2667 -114.0844 68° East 475 547 39,000  Level Los Angeles Center
05:31PM 36.3144 -113.9333 69° East 473 544 39,000  Level Los Angeles Center
05:32PM 36.3614 -113.7817 69° East 472 543 39,000  Level Los Angeles Center
05:33PM 36.4183 -113.5992 69° East 472 543 39,000  Level Los Angeles Center
05:34PM 36.4667 -113.4458 69° East 475 547 39,000  Level Los Angeles Center
05:35PM 36.5092 -113.3089 69° East 477 549 39,000  Level Los Angeles Center
05:36PM 36.5644 -113.1239 70° East 478 550 39,000  Level Los Angeles Center
05:37PM 36.6128 -112.9686 69° East 482 555 39,000  Level Los Angeles Center
05:38PM 36.6600 -112.8131 69° East 483 556 39,000  Level Los Angeles Center
05:39PM 36.7078 -112.6567 69° East 485 558 39,000  Level Los Angeles Center
05:40PM 36.7544 -112.4992 70° East 487 560 39,000  Level Los Angeles Center
05:41PM 36.8100 -112.3119 70° East 485 558 39,000  Level Los Angeles Center
05:42PM 36.8572 -112.1558 69° East 484 557 39,000  Level Los Angeles Center
05:43PM 36.8939 -112.0311 70° East 482 555 39,000  Level Denver Center
05:44PM 36.9483 -111.8442 70° East 480 552 39,000  Level Denver Center
05:45PM 36.9944 -111.6864 70° East 483 556 39,000  Level Denver Center
05:46PM 37.0414 -111.5286 70° East 485 558 39,000  Level Denver Center
05:47PM 37.0856 -111.3714 71° East 483 556 39,000  Level Denver Center
05:48PM 37.1311 -111.2133 70° East 483 556 39,000  Level Denver Center
05:49PM 37.1761 -111.0539 70° East 487 560 39,000  Level Denver Center
05:50PM 37.2317 -110.8611 70° East 491 565 39,000  Level Denver Center
05:52PM 37.2753 -110.7014 71° East 488 562 39,000  Level Denver Center
05:53PM 37.3211 -110.5400 70° East 490 564 39,000  Level Denver Center
05:54PM 37.3656 -110.3794 71° East 489 563 39,000  Level Denver Center
05:55PM 37.4100 -110.2181 71° East 489 563 39,000  Level Denver Center
05:56PM 37.4628 -110.0264 71° East 487 560 39,000  Level Denver Center
05:57PM 37.5053 -109.8722 71° East 486 559 39,000  Level Denver Center
05:58PM 37.5464 -109.7169 71° East 489 563 39,000  Level Denver Center
05:59PM 37.5956 -109.5344 71° East 491 565 39,000  Level Denver Center
06:00PM 37.6369 -109.3797 71° East 487 560 39,000  Level Denver Center
06:01PM 37.6856 -109.1969 71° East 491 565 39,000  Level Denver Center
06:02PM 37.7269 -109.0397 72° East 492 566 39,000  Level Denver Center
06:03PM 37.7753 -108.8553 72° East 495 570 39,000  Level Denver Center
06:04PM 37.8172 -108.6928 72° East 503 579 39,000  Level Denver Center
06:05PM 37.8653 -108.5072 72° East 499 574 39,000  Level Denver Center
06:06PM 37.9075 -108.3456 72° East 502 578 39,000  Level Denver Center
06:07PM 37.9553 -108.1550 72° East 505 581 39,000  Level Denver Center
06:08PM 37.9967 -107.9914 72° East 509 586 39,000  Level Denver Center
06:09PM 38.0444 -107.8022 72° East 508 585 39,000  Level Denver Center
06:10PM 38.0881 -107.6272 72° East 503 579 39,000  Level Denver Center
06:11PM 38.1286 -107.4658 72° East 504 580 39,000  Level Denver Center
06:12PM 38.1683 -107.3022 73° East 507 583 39,000  Level Denver Center
06:13PM 38.2139 -107.1189 72° East 502 578 39,000  Level Denver Center
06:14PM 38.2542 -106.9492 73° East 503 579 39,000  Level Denver Center
06:15PM 38.2997 -106.7619 73° East 503 579 39,000  Level Denver Center
06:16PM 38.3381 -106.5981 73° East 507 583 39,000  Level Denver Center
06:17PM 38.3836 -106.4056 73° East 504 580 39,000  Level Denver Center
06:18PM 38.4236 -106.2358 73° East 504 580 39,000  Level Denver Center
06:19PM 38.4631 -106.0689 73° East 504 580 39,000  Level Denver Center
06:20PM 38.5075 -105.8775 73° East 504 580 39,000  Level Denver Center
06:22PM 38.5442 -105.7139 74° East 501 577 39,000  Level Denver Center
06:23PM 38.5886 -105.5233 73° East 501 577 39,000  Level Denver Center
06:24PM 38.6253 -105.3592 74° East 502 578 39,000  Level Denver Center
06:25PM 38.6689 -105.1653 74° East 507 583 39,000  Level Denver Center
06:26PM 38.7053 -105.0014 74° East 503 579 39,000  Level Denver Center
06:27PM 38.7486 -104.8058 74° East 508 585 39,000  Level Denver Center
06:28PM 38.7850 -104.6403 74° East 504 580 39,000  Level Denver Center
06:29PM 38.8211 -104.4722 75° East 507 583 39,000  Level Denver Center
06:30PM 38.8639 -104.2789 74° East 506 582 39,000  Level Denver Center
06:31PM 38.8989 -104.1128 75° East 505 581 39,000  Level Denver Center
06:32PM 38.9403 -103.9189 75° East 505 581 39,000  Level Denver Center
06:33PM 38.9756 -103.7531 75° East 502 578 39,000  Level Denver Center
06:34PM 39.0147 -103.5589 75° East 502 578 39,000  Level Denver Center
06:35PM 39.0533 -103.3806 74° East 501 577 39,000  Level Denver Center
06:36PM 39.0897 -103.1969 76° East 507 583 39,000  Level Denver Center
06:37PM 39.1236 -103.0303 75° East 504 580 39,000  Level Denver Center
06:38PM 39.1642 -102.8336 75° East 507 583 39,000  Level Denver Center
06:39PM 39.1994 -102.6544 76° East 504 580 39,000  Level Denver Center
06:40PM 39.2333 -102.4856 75° East 507 583 39,000  Level Denver Center
06:41PM 39.2669 -102.3161 76° East 509 586 39,000  Level Denver Center
06:42PM 39.3056 -102.1192 76° East 508 585 39,000  Level Denver Center
06:43PM 39.3386 -101.9492 76° East 512 589 39,000  Level Denver Center
06:44PM 39.3769 -101.7486 76° East 516 594 39,000  Level Denver Center
06:45PM 39.4081 -101.5758 77° East 517 595 39,000  Level Denver Center
06:46PM 39.4428 -101.3728 77° East 518 596 39,000  Level Denver Center
06:47PM 39.4725 -101.1964 78° East 524 603 39,000  Level Denver Center
06:48PM 39.5058 -100.9939 78° East 521 600 39,000  Level Denver Center
06:49PM 39.5350 -100.8217 78° East 517 595 39,000  Level Denver Center
06:50PM 39.5692 -100.6181 78° East 520 598 39,000  Level Denver Center
06:51PM 39.5975 -100.4447 78° East 516 594 39,000  Level Denver Center
06:53PM 39.6289 -100.2411 79° East 518 596 39,000  Level Denver Center
06:54PM 39.6575 -100.0678 78° East 516 594 39,000  Level Denver Center
06:55PM 39.6886 -99.8664 79° East 514 592 39,000 180 Level Denver Center
06:56PM 39.7175 -99.6833 78° East 518 596 39,400 480 Climbing Denver Center
06:57PM 39.7406 -99.5372 78° East 518 596 40,000 240 Climbing Denver Center
06:58PM 39.7733 -99.3178 79° East 515 593 40,000  Level Denver Center
06:59PM 39.8014 -99.1342 79° East 519 597 40,000  Level Denver Center
07:00PM 39.8417 -98.9189 76° East 515 593 40,000  Level Denver Center
07:00PM 39.8561 -98.8489 75° East 514 592 40,000  Level Minneapolis Center
07:01PM 39.8750 -98.7386 77° East 515 593 40,000  Level Denver Center
07:01PM 39.8875 -98.6683 77° East 514 592 40,000  Level Minneapolis Center
07:02PM 39.9197 -98.4892 77° East 512 589 40,000  Level Minneapolis Center
07:03PM 39.9581 -98.2758 77° East 507 583 40,000  Level Minneapolis Center
07:04PM 39.9911 -98.0950 77° East 511 588 40,000  Level Minneapolis Center
07:05PM 40.0231 -97.9136 77° East 514 592 40,000  Level Minneapolis Center
07:06PM 40.0539 -97.7306 78° East 518 596 40,000  Level Minneapolis Center
07:07PM 40.0897 -97.5233 77° East 519 597 40,000  Level Minneapolis Center
07:09PM 40.1175 -97.3644 77° East 519 597 40,000  Level Minneapolis Center
07:10PM 40.1522 -97.1567 78° East 519 597 40,000  Level Minneapolis Center
07:11PM 40.1828 -96.9722 78° East 520 598 40,000  Level Minneapolis Center
07:12PM 40.2131 -96.7867 78° East 522 601 40,000  Level Minneapolis Center
07:13PM 40.2436 -96.6039 78° East 520 598 40,000  Level Minneapolis Center
07:14PM 40.2736 -96.4203 78° East 518 596 40,000  Level Minneapolis Center
07:15PM 40.3086 -96.2017 78° East 515 593 40,000  Level Minneapolis Center
07:16PM 40.3422 -95.9828 79° East 514 592 40,000  Level Minneapolis Center
07:17PM 40.3714 -95.7972 78° East 519 597 40,000  Level Minneapolis Center
07:18PM 40.4003 -95.6156 78° East 514 592 40,000  Level Minneapolis Center
07:19PM 40.4339 -95.3978 78° East 511 588 40,000  Level Minneapolis Center
07:20PM 40.4669 -95.1781 79° East 513 590 40,000  Level Minneapolis Center
07:21PM 40.4947 -94.9958 79° East 512 589 40,000  Level Minneapolis Center
07:22PM 40.5208 -94.8106 79° East 515 593 40,000  Level Minneapolis Center
07:23PM 40.5478 -94.6253 79° East 516 594 40,000  Level Minneapolis Center
07:24PM 40.5747 -94.4372 79° East 520 598 40,000  Level Minneapolis Center
07:25PM 40.6047 -94.2131 80° East 521 600 40,000  Level Minneapolis Center
07:27PM 40.6303 -94.0289 80° East 520 598 40,000  Level Minneapolis Center
07:28PM 40.6561 -93.8439 80° East 517 595 40,000  Level Minneapolis Center
07:29PM 40.6825 -93.6594 79° East 517 595 40,000  Level Minneapolis Center
07:30PM 40.7078 -93.4722 80° East 514 592 40,000  Level Minneapolis Center
07:31PM 40.7369 -93.2533 80° East 515 593 40,000 -300 Level Minneapolis Center
07:33PM 40.7842 -92.8819 80° East 511 588 39,100 -480 Descending Chicago Center
07:33PM 40.7847 -92.8831 303° West 514 592 39,000 -1,020 Descending Minneapolis Center
07:34PM 40.8094 -92.6967 80° East 512 589 38,100 -1,020 Descending Chicago Center
07:35PM 40.8339 -92.5069 80° East 523 602 37,200 -960 Descending Chicago Center
07:36PM 40.8564 -92.3186 81° East 521 600 36,200 -1,020 Descending Chicago Center
07:37PM 40.8797 -92.1306 81° East 520 598 35,200 -1,020 Descending Chicago Center
07:38PM 40.9064 -91.9047 81° East 521 600 34,100 -1,080 Descending Chicago Center
07:39PM 40.9283 -91.7178 81° East 518 596 33,000 -1,260 Descending Chicago Center
07:40PM 40.9517 -91.5358 80° East 506 582 31,500 -1,560 Descending Chicago Center
07:41PM 40.9717 -91.3544 82° East 501 577 29,800 -1,680 Descending Chicago Center
07:42PM 40.9908 -91.1786 82° East 499 574 28,100 -1,980 Descending Chicago Center
07:43PM 41.0153 -90.9597 82° East 501 577 25,800 -1,920 Descending Chicago Center
07:44PM 41.0361 -90.7775 81° East 499 574 24,200 -900 Descending Chicago Center
07:45PM 41.0561 -90.5986 82° East 494 568 24,000 -660 Descending Chicago Center
07:46PM 41.0747 -90.4217 82° East 486 559 22,900 -1,020 Descending Chicago Center
07:47PM 41.0933 -90.2450 82° East 481 554 21,900 -1,500 Descending Chicago Center
07:48PM 41.1117 -90.0739 82° East 467 537 19,800 -2,040 Descending Chicago Center
07:49PM 41.1281 -89.9081 82° East 452 520 17,800 -1,500 Descending Chicago Center
07:50PM 41.1442 -89.7489 82° East 434 499 16,700 -1,140 Descending Chicago Center
07:51PM 41.1622 -89.5600 83° East 427 491 15,500 -1,080 Descending Chicago Center
07:52PM 41.1739 -89.4061 84° East 419 482 14,500 -1,020 Descending Chicago Center
07:53PM 41.1961 -89.2569 79° East 409 471 13,500 -1,020 Descending Chicago Center
07:54PM 41.2492 -89.1153 63° Northeast 393 452 12,400 -1,020 Descending Chicago Center
07:55PM 41.2961 -88.9872 64° Northeast 388 447 11,400 -1,020 Descending Chicago Center
07:56PM 41.3414 -88.8650 64° Northeast 373 429 10,400 -900 Descending Chicago Center
07:58PM 41.3814 -88.7603 63° Northeast 322 371 9,600 -1,200 Descending Chicago Center
07:59PM 41.4197 -88.6603 63° Northeast 307 353 8,000 -1,200 Descending Chicago Center
08:01PM 41.5033 -88.4558 61° Northeast 284 327 5,900 -1,020 Descending Chicago Center
08:02PM 41.5375 -88.3658 63° Northeast 278 320 5,000 -480 Descending Chicago Center
08:03PM 41.5531 -88.2667 78° East 275 316 5,000  Level Chicago Center
08:04PM 41.5581 -88.1661 86° East 271 312 5,000  Level Chicago Center
08:05PM 41.5603 -88.0644 88° East 272 313 5,000  Level Chicago Center
08:06PM 41.5642 -87.9619 87° East 272 313 5,000 -240 Level Chicago Center
08:07PM 41.5769 -87.8406 82° East 280 322 4,600 -480 Descending Chicago Center
08:08PM 41.6231 -87.7717 48° Northeast 260 299 4,100 -660 Descending Chicago Center
08:08PM 41.6333 -87.7500 58° Northeast 235 270 3,800 -900 Descending Chicago TRACON
08:09PM 41.6833 -87.7000 37° Northeast 202 232 3,000 -840 Descending Chicago TRACON
08:10PM 41.7333 -87.6833 14° North 168 193 2,200 -900 Descending Chicago TRACON
08:11PM 41.7667 -87.7167 323° Northwest 131 151 1,300 -900 Descending Chicago TRACON